createdAt,value
2022-12-26T00:00:23.871Z,3.22
2022-12-26T00:04:50.078Z,3.17
2022-12-26T00:09:10.544Z,2.80
2022-12-26T00:13:39.788Z,2.80
2022-12-26T00:17:58.153Z,3.30
2022-12-26T00:22:15.936Z,3.10
2022-12-26T00:26:36.158Z,3.10
2022-12-26T00:30:53.256Z,2.97
2022-12-26T00:35:10.616Z,3.50
2022-12-26T00:39:27.999Z,3.00
2022-12-26T00:43:45.240Z,2.83
2022-12-26T00:48:02.501Z,3.67
2022-12-26T00:52:20.168Z,3.50
2022-12-26T00:56:37.248Z,3.25
2022-12-26T01:00:55.254Z,3.30
2022-12-26T01:05:12.431Z,3.17
2022-12-26T01:09:29.511Z,2.90
2022-12-26T01:13:46.587Z,3.38
2022-12-26T01:18:05.200Z,3.17
2022-12-26T01:22:23.049Z,3.13
2022-12-26T01:26:40.205Z,3.33
2022-12-26T01:31:01.680Z,3.20
2022-12-26T01:35:18.778Z,3.58
2022-12-26T01:39:35.849Z,2.92
2022-12-26T01:43:57.266Z,2.88
2022-12-26T01:48:35.290Z,3.17
2022-12-26T01:52:54.933Z,3.53
2022-12-26T01:57:35.463Z,3.60
2022-12-26T02:01:54.224Z,3.25
2022-12-26T02:06:13.683Z,3.38
2022-12-26T02:10:36.186Z,3.10
2022-12-26T02:14:53.300Z,3.47
2022-12-26T02:19:39.991Z,3.47
2022-12-26T02:24:36.880Z,3.33
2022-12-26T02:29:12.970Z,3.13
2022-12-26T02:33:50.268Z,3.28
2022-12-26T02:38:28.178Z,2.70
2022-12-26T02:42:45.249Z,4.15
2022-12-26T02:47:43.990Z,3.10
2022-12-26T02:52:33.211Z,2.70
2022-12-26T02:57:15.831Z,3.27
2022-12-26T03:01:57.892Z,2.67
2022-12-26T03:06:41.364Z,3.08
2022-12-26T03:11:18.055Z,2.85
2022-12-26T03:16:22.576Z,3.22
2022-12-26T03:20:39.877Z,2.80
2022-12-26T03:25:16.747Z,3.15
2022-12-26T03:30:00.302Z,2.88
2022-12-26T03:34:17.427Z,2.92
2022-12-26T03:38:55.359Z,2.65
2022-12-26T03:44:04.883Z,2.47
2022-12-26T03:48:56.732Z,2.60
2022-12-26T03:53:47.886Z,2.58
2022-12-26T03:58:39.044Z,2.75
2022-12-26T04:03:21.092Z,2.78
2022-12-26T04:08:02.595Z,3.38
2022-12-26T04:12:42.429Z,2.58
2022-12-26T04:17:49.532Z,2.60
2022-12-26T04:22:29.726Z,3.15
2022-12-26T04:27:09.231Z,3.28
2022-12-26T04:37:03.791Z,2.90
2022-12-26T04:41:40.956Z,3.30
2022-12-26T04:45:58.421Z,3.22
2022-12-26T04:50:15.572Z,3.08
2022-12-26T04:54:33.138Z,2.78
2022-12-26T04:58:50.208Z,2.90
2022-12-26T05:03:27.643Z,3.30
2022-12-26T05:08:03.315Z,3.03
2022-12-26T05:12:21.112Z,3.28
2022-12-26T05:16:56.939Z,3.08
2022-12-26T05:21:36.467Z,2.80
2022-12-26T05:30:29.601Z,3.38
2022-12-26T05:34:46.695Z,3.05
2022-12-26T05:39:04.707Z,2.65
2022-12-26T05:43:21.919Z,2.90
2022-12-26T05:47:39.107Z,2.72
2022-12-26T05:51:56.162Z,2.90
2022-12-26T05:56:15.370Z,3.58
2022-12-26T06:00:32.766Z,2.88
2022-12-26T06:04:49.912Z,3.28
2022-12-26T06:09:07.017Z,2.85
2022-12-26T06:13:24.470Z,2.65
2022-12-26T06:17:41.556Z,3.10
2022-12-26T06:21:58.705Z,3.08
2022-12-26T06:26:16.877Z,2.65
2022-12-26T06:30:33.948Z,3.00
2022-12-26T06:34:51.036Z,3.17
2022-12-26T06:39:08.120Z,2.78
2022-12-26T06:43:25.204Z,3.10
2022-12-26T06:47:42.277Z,3.25
2022-12-26T06:51:59.376Z,3.33
2022-12-26T06:56:20.247Z,3.00
2022-12-26T07:00:37.424Z,3.30
2022-12-26T07:04:54.547Z,3.47
2022-12-26T07:09:16.776Z,3.20
2022-12-26T07:13:33.884Z,3.40
2022-12-26T07:17:52.328Z,3.00
2022-12-26T07:22:09.409Z,2.97
2022-12-26T07:26:26.687Z,3.00
2022-12-26T07:30:48.368Z,3.30
2022-12-26T07:35:05.800Z,2.72
2022-12-26T07:39:22.925Z,3.38
2022-12-26T07:43:39.993Z,3.40
2022-12-26T07:47:57.716Z,2.97
2022-12-26T07:52:14.801Z,2.63
2022-12-26T07:56:32.649Z,4.65
2022-12-26T08:00:49.840Z,3.20
2022-12-26T08:05:07.213Z,3.22
2022-12-26T08:09:24.389Z,3.10
2022-12-26T08:13:41.560Z,3.10
2022-12-26T08:17:58.717Z,2.88
2022-12-26T08:22:15.944Z,3.47
2022-12-26T08:26:33.081Z,3.30
2022-12-26T08:30:50.284Z,3.10
2022-12-26T08:35:07.961Z,3.22
2022-12-26T08:39:25.340Z,2.80
2022-12-26T08:44:25.331Z,3.00
2022-12-26T08:48:19.630Z,3.10
2022-12-26T08:52:36.780Z,2.90
2022-12-26T08:56:53.929Z,2.80
2022-12-26T09:01:23.499Z,3.20
2022-12-26T09:05:40.715Z,3.22
2022-12-26T09:09:58.395Z,2.20
2022-12-26T09:14:15.505Z,2.95
2022-12-26T09:18:32.847Z,2.70
2022-12-26T09:22:53.031Z,2.30
2022-12-26T09:27:10.802Z,2.58
2022-12-26T09:31:29.818Z,2.80
2022-12-26T09:35:48.049Z,3.42
2022-12-26T09:40:06.103Z,2.90
2022-12-26T09:44:38.654Z,2.93
2022-12-26T09:49:08.314Z,2.50
2022-12-26T09:53:35.901Z,3.15
2022-12-26T09:57:56.973Z,2.85
2022-12-26T10:02:20.026Z,2.83
2022-12-26T10:06:41.747Z,3.35
2022-12-26T10:11:02.487Z,2.95
2022-12-26T10:15:38.501Z,3.55
2022-12-26T10:20:01.342Z,3.20
2022-12-26T10:24:25.047Z,2.85
2022-12-26T10:28:51.465Z,2.67
2022-12-26T10:33:24.041Z,2.70
2022-12-26T10:37:42.191Z,2.67
2022-12-26T10:42:09.383Z,2.80
2022-12-26T10:46:36.632Z,2.90
2022-12-26T10:50:53.880Z,2.70
2022-12-26T10:55:27.083Z,2.45
2022-12-26T10:59:48.298Z,2.65
2022-12-26T11:04:18.838Z,2.03
2022-12-26T11:08:47.586Z,2.60
2022-12-26T11:13:19.120Z,2.42
2022-12-26T11:17:43.180Z,2.72
2022-12-26T11:22:29.429Z,2.38
2022-12-26T11:26:46.905Z,2.95
2022-12-26T11:31:06.705Z,3.80
2022-12-26T11:35:28.351Z,3.53
2022-12-26T11:39:49.725Z,3.10
2022-12-26T11:44:09.587Z,3.10
2022-12-26T11:48:27.474Z,2.40
2022-12-26T11:52:54.080Z,2.72
2022-12-26T11:57:22.085Z,2.20
2022-12-26T12:01:39.928Z,2.45
2022-12-26T12:06:27.383Z,2.40
2022-12-26T12:11:12.643Z,5.05
2022-12-26T12:15:39.443Z,2.50
2022-12-26T12:20:27.039Z,1.70
2022-12-26T12:24:56.245Z,2.60
2022-12-26T12:29:51.758Z,3.00
2022-12-26T12:35:03.111Z,5.00
2022-12-26T12:39:37.742Z,2.92
2022-12-26T12:44:10.209Z,2.35
2022-12-26T12:48:38.181Z,1.90
2022-12-26T12:52:58.229Z,2.08
2022-12-26T12:57:56.455Z,1.67
2022-12-26T13:02:23.620Z,0.80
2022-12-26T13:06:49.210Z,0.85
2022-12-26T13:11:37.172Z,1.10
2022-12-26T13:16:00.280Z,1.27
2022-12-26T13:20:38.719Z,1.10
2022-12-26T13:24:59.861Z,1.00
2022-12-26T13:29:38.287Z,5.93
2022-12-26T13:33:56.194Z,1.50
2022-12-26T13:38:13.811Z,1.50
2022-12-26T13:42:54.973Z,1.20
2022-12-26T13:47:36.425Z,1.33
2022-12-26T13:51:56.066Z,4.70
2022-12-26T13:56:18.942Z,2.75
2022-12-26T14:00:48.161Z,2.30
2022-12-26T14:09:53.131Z,1.55
2022-12-26T14:14:31.590Z,1.80
2022-12-26T14:19:19.839Z,4.05
2022-12-26T14:24:16.426Z,2.28
2022-12-26T14:28:52.052Z,2.17
2022-12-26T14:33:42.573Z,2.85
2022-12-26T14:38:05.547Z,3.10
2022-12-26T14:42:43.221Z,2.13
2022-12-26T14:47:02.352Z,2.00
2022-12-26T14:51:19.453Z,2.30
2022-12-26T14:55:46.948Z,3.35
2022-12-26T15:00:27.928Z,2.72
2022-12-26T15:04:55.917Z,3.00
2022-12-26T15:09:37.007Z,3.03
2022-12-26T15:14:12.866Z,3.20
2022-12-26T15:18:51.670Z,2.58
2022-12-26T15:23:20.973Z,2.87
2022-12-26T15:28:18.101Z,2.85
2022-12-26T15:32:49.766Z,3.63
2022-12-26T15:37:37.083Z,4.97
2022-12-26T15:42:08.392Z,6.25
2022-12-26T15:46:41.183Z,3.38
2022-12-26T15:51:05.346Z,3.13
2022-12-26T15:55:46.380Z,3.90
2022-12-26T16:00:11.226Z,5.60
2022-12-26T16:04:39.059Z,2.47
2022-12-26T16:09:21.090Z,2.67
2022-12-26T16:14:11.306Z,2.28
2022-12-26T16:18:31.303Z,2.30
2022-12-26T16:22:48.476Z,2.03
2022-12-26T16:27:07.886Z,2.10
2022-12-26T16:31:28.597Z,2.10
2022-12-26T16:35:45.826Z,3.42
2022-12-26T16:40:24.092Z,3.22
2022-12-26T16:44:44.337Z,1.90
2022-12-26T16:49:02.129Z,2.17
2022-12-26T16:53:22.617Z,2.10
2022-12-26T16:57:42.424Z,1.60
2022-12-26T17:02:00.595Z,2.20
2022-12-26T17:06:25.616Z,1.70
2022-12-26T17:10:48.752Z,2.10
2022-12-26T17:15:07.137Z,2.40
2022-12-26T17:19:29.605Z,2.20
2022-12-26T17:24:20.115Z,3.15
2022-12-26T17:28:37.595Z,3.15
2022-12-26T17:32:56.102Z,3.10
2022-12-26T17:37:32.084Z,3.13
2022-12-26T17:41:52.639Z,2.72
2022-12-26T17:46:16.047Z,3.30
2022-12-26T17:50:36.476Z,3.53
2022-12-26T17:54:56.186Z,2.33
2022-12-26T17:59:14.624Z,1.63
2022-12-26T18:03:31.731Z,1.48
2022-12-26T18:07:51.770Z,1.20
2022-12-26T18:12:12.481Z,0.82
2022-12-26T18:16:29.990Z,1.80
2022-12-26T18:20:47.132Z,1.80
2022-12-26T18:25:04.510Z,1.10
2022-12-26T18:29:22.029Z,0.75
2022-12-26T18:33:39.146Z,0.93
2022-12-26T18:37:56.280Z,0.90
2022-12-26T18:42:14.820Z,1.10
2022-12-26T18:46:32.095Z,0.90
2022-12-26T18:50:49.179Z,0.90
2022-12-26T18:55:06.896Z,0.80
2022-12-26T18:59:24.033Z,1.33
2022-12-26T19:03:42.101Z,0.90
2022-12-26T19:08:00.914Z,1.20
2022-12-26T19:12:18.027Z,6.28
2022-12-26T19:16:37.934Z,2.10
2022-12-26T19:20:55.107Z,1.40
2022-12-26T19:25:13.456Z,2.22
2022-12-26T19:29:30.677Z,2.22
2022-12-26T19:33:47.833Z,1.30
2022-12-26T19:38:04.949Z,2.40
2022-12-26T19:42:22.065Z,1.75
2022-12-26T19:46:39.361Z,1.73
2022-12-26T19:51:03.717Z,1.20
2022-12-26T19:55:20.812Z,3.92
2022-12-26T19:59:37.987Z,3.20
2022-12-26T20:04:02.072Z,5.28
2022-12-26T20:08:19.161Z,3.13
2022-12-26T20:12:36.368Z,1.83
2022-12-26T20:17:07.051Z,1.50
2022-12-26T20:21:24.841Z,1.60
2022-12-26T20:25:41.944Z,1.35
2022-12-26T20:29:59.087Z,1.45
2022-12-26T20:34:16.324Z,1.58
2022-12-26T20:38:34.281Z,1.98
2022-12-26T20:42:51.360Z,4.20
2022-12-26T20:47:09.011Z,3.70
2022-12-26T20:51:36.456Z,2.58
2022-12-26T20:55:57.436Z,2.00
2022-12-26T21:00:15.154Z,6.85
2022-12-26T21:04:33.197Z,3.55
2022-12-26T21:08:52.078Z,1.98
2022-12-26T21:13:09.470Z,1.50
2022-12-26T21:17:26.566Z,1.00
2022-12-26T21:21:46.514Z,0.80
2022-12-26T21:26:04.613Z,1.38
2022-12-26T21:30:21.853Z,1.15
2022-12-26T21:34:39.016Z,1.33
2022-12-26T21:38:57.081Z,1.20
2022-12-26T21:43:14.567Z,1.48
2022-12-26T21:47:31.640Z,2.40
2022-12-26T21:51:48.713Z,3.25
2022-12-26T21:56:10.331Z,3.03
2022-12-26T22:00:27.576Z,3.90
2022-12-26T22:04:44.676Z,3.72
2022-12-26T22:09:02.103Z,4.55
2022-12-26T22:13:20.802Z,4.88
2022-12-26T22:17:37.852Z,5.60
2022-12-26T22:21:55.065Z,6.15
2022-12-26T22:26:15.125Z,7.53
2022-12-26T22:30:32.263Z,5.97
2022-12-26T22:34:49.709Z,5.25
2022-12-26T22:39:07.156Z,4.00
2022-12-26T22:43:24.991Z,4.43
2022-12-26T22:47:42.138Z,3.75
2022-12-26T22:51:59.597Z,4.50
2022-12-26T22:56:16.700Z,4.80
2022-12-26T23:00:33.785Z,4.35
2022-12-26T23:04:51.351Z,4.63
2022-12-26T23:09:14.057Z,4.70
2022-12-26T23:13:31.335Z,4.90
2022-12-26T23:18:33.346Z,4.82
2022-12-26T23:22:50.688Z,4.85
2022-12-26T23:27:27.781Z,4.85
2022-12-26T23:31:44.905Z,4.97
2022-12-26T23:36:01.988Z,4.93
2022-12-26T23:40:20.573Z,5.93
2022-12-26T23:48:54.561Z,5.78
2022-12-26T23:53:11.764Z,5.10
2022-12-26T23:57:29.004Z,4.85
